createdAt,value
2019-03-05T00:00:23.659Z,991.35
2019-03-05T00:01:04.274Z,991.37
2019-03-05T00:01:44.833Z,991.36
2019-03-05T00:02:25.406Z,991.29
2019-03-05T00:03:05.951Z,991.3
2019-03-05T00:03:46.512Z,991.37
2019-03-05T00:04:27.126Z,991.34
2019-03-05T00:05:07.650Z,991.38
2019-03-05T00:05:48.233Z,991.35
2019-03-05T00:06:28.806Z,991.42
2019-03-05T00:07:09.384Z,991.33
2019-03-05T00:07:50.044Z,991.38
2019-03-05T00:08:30.593Z,991.34
2019-03-05T00:09:11.138Z,991.44
2019-03-05T00:09:51.697Z,991.33
2019-03-05T00:10:32.276Z,991.42
2019-03-05T00:11:12.898Z,991.44
2019-03-05T00:11:53.460Z,991.4
2019-03-05T00:12:34.033Z,991.4
2019-03-05T00:13:14.607Z,991.46
2019-03-05T00:13:55.163Z,991.42
2019-03-05T00:14:35.727Z,991.44
2019-03-05T00:15:16.291Z,991.42
2019-03-05T00:15:56.869Z,991.38
2019-03-05T00:16:37.434Z,991.44
2019-03-05T00:17:18.051Z,991.34
2019-03-05T00:17:58.600Z,991.34
2019-03-05T00:18:39.176Z,991.41
2019-03-05T00:19:19.747Z,991.43
2019-03-05T00:20:00.343Z,991.39
2019-03-05T00:20:40.899Z,991.39
2019-03-05T00:21:21.450Z,991.43
2019-03-05T00:22:02.015Z,991.44
2019-03-05T00:22:42.606Z,991.4
2019-03-05T00:23:23.174Z,991.34
2019-03-05T00:24:03.727Z,991.44
2019-03-05T00:24:44.313Z,991.39
2019-03-05T00:25:24.862Z,991.43
2019-03-05T00:26:05.463Z,991.44
2019-03-05T00:26:45.989Z,991.46
2019-03-05T00:27:26.573Z,991.4
2019-03-05T00:28:07.133Z,991.44
2019-03-05T00:28:47.725Z,991.46
2019-03-05T00:29:28.304Z,991.42
2019-03-05T00:30:08.907Z,991.47
2019-03-05T00:30:49.472Z,991.43
2019-03-05T00:31:30.030Z,991.4
2019-03-05T00:32:10.607Z,991.46
2019-03-05T00:32:51.181Z,991.49
2019-03-05T00:33:32.749Z,991.45
2019-03-05T00:34:12.300Z,991.48
2019-03-05T00:34:52.872Z,991.48
2019-03-05T00:35:33.425Z,991.47
2019-03-05T00:36:13.981Z,991.52
2019-03-05T00:36:54.560Z,991.46
2019-03-05T00:37:35.112Z,991.48
2019-03-05T00:38:15.673Z,991.52
2019-03-05T00:38:56.250Z,991.49
2019-03-05T00:39:36.818Z,991.5
2019-03-05T00:40:17.378Z,991.49
2019-03-05T00:40:57.962Z,991.52
2019-03-05T00:41:38.516Z,991.52
2019-03-05T00:42:19.072Z,991.46
2019-03-05T00:42:59.623Z,991.49
2019-03-05T00:43:40.176Z,991.47
2019-03-05T00:44:20.749Z,991.44
2019-03-05T00:45:01.328Z,991.47
2019-03-05T00:45:41.893Z,991.49
2019-03-05T00:46:22.476Z,991.56
2019-03-05T00:47:03.027Z,991.58
2019-03-05T00:47:43.604Z,991.58
2019-03-05T00:48:24.154Z,991.48
2019-03-05T00:49:04.752Z,991.57
2019-03-05T00:49:45.332Z,991.48
2019-03-05T00:50:25.920Z,991.5
2019-03-05T00:51:06.490Z,991.51
2019-03-05T00:51:47.053Z,991.52
2019-03-05T00:52:27.611Z,991.54
2019-03-05T00:53:08.178Z,991.51
2019-03-05T00:53:48.741Z,991.57
2019-03-05T00:54:29.312Z,991.58
2019-03-05T00:55:09.869Z,991.49
2019-03-05T00:55:50.454Z,991.52
2019-03-05T00:56:31.077Z,991.58
2019-03-05T00:57:11.763Z,991.62
2019-03-05T00:57:52.344Z,991.62
2019-03-05T00:58:32.901Z,991.62
2019-03-05T00:59:13.468Z,991.64
2019-03-05T00:59:54.052Z,991.61
2019-03-05T01:00:34.623Z,991.55
2019-03-05T01:01:15.205Z,991.61
2019-03-05T01:01:55.757Z,991.62
2019-03-05T01:02:36.335Z,991.54
2019-03-05T01:03:16.910Z,991.63
2019-03-05T01:03:57.479Z,991.6
2019-03-05T01:04:38.031Z,991.59
2019-03-05T01:05:18.613Z,991.57
2019-03-05T01:05:59.200Z,991.6
2019-03-05T01:06:39.758Z,991.57
2019-03-05T01:07:20.301Z,991.55
2019-03-05T01:08:00.848Z,991.58
2019-03-05T01:08:41.420Z,991.52
2019-03-05T01:09:21.969Z,991.52
2019-03-05T01:10:02.539Z,991.55
2019-03-05T01:10:43.114Z,991.61
2019-03-05T01:11:23.696Z,991.59
2019-03-05T01:12:04.295Z,991.56
2019-03-05T01:12:44.867Z,991.56
2019-03-05T01:13:25.429Z,991.47
2019-03-05T01:14:05.993Z,991.5
2019-03-05T01:14:46.556Z,991.56
2019-03-05T01:15:27.110Z,991.58
2019-03-05T01:16:07.666Z,991.54
2019-03-05T01:16:48.281Z,991.56
2019-03-05T01:17:29.728Z,991.53
2019-03-05T01:18:10.322Z,991.52
2019-03-05T01:18:50.871Z,991.49
2019-03-05T01:19:31.449Z,991.56
2019-03-05T01:20:11.992Z,991.52
2019-03-05T01:20:52.560Z,991.47
2019-03-05T01:21:33.143Z,991.48
2019-03-05T01:22:13.742Z,991.48
2019-03-05T01:22:54.327Z,991.4
2019-03-05T01:23:34.906Z,991.5
2019-03-05T01:24:15.457Z,991.41
2019-03-05T01:24:56.029Z,991.54
2019-03-05T01:25:36.611Z,991.43
2019-03-05T01:26:17.150Z,991.55
2019-03-05T01:26:57.737Z,991.48
2019-03-05T01:27:38.332Z,991.52
2019-03-05T01:28:18.908Z,991.47
2019-03-05T01:28:59.477Z,991.51
2019-03-05T01:29:40.012Z,991.48
2019-03-05T01:30:20.574Z,991.48
2019-03-05T01:31:01.121Z,991.53
2019-03-05T01:31:41.676Z,991.48
2019-03-05T01:32:22.205Z,991.53
2019-03-05T01:33:02.778Z,991.49
2019-03-05T01:33:43.343Z,991.49
2019-03-05T01:34:23.913Z,991.49
2019-03-05T01:35:04.498Z,991.49
2019-03-05T01:35:45.058Z,991.37
2019-03-05T01:36:25.629Z,991.44
2019-03-05T01:37:06.191Z,991.51
2019-03-05T01:37:46.819Z,991.49
2019-03-05T01:38:27.362Z,991.33
2019-03-05T01:39:07.933Z,991.45
2019-03-05T01:39:48.479Z,991.43
2019-03-05T01:40:29.120Z,991.43
2019-03-05T01:41:09.611Z,991.42
2019-03-05T01:41:50.176Z,991.38
2019-03-05T01:42:30.752Z,991.41
2019-03-05T01:43:11.324Z,991.43
2019-03-05T01:43:51.891Z,991.42
2019-03-05T01:44:32.479Z,991.44
2019-03-05T01:45:13.043Z,991.39
2019-03-05T01:45:53.599Z,991.5
2019-03-05T01:46:34.163Z,991.44
2019-03-05T01:47:14.734Z,991.47
2019-03-05T01:47:55.284Z,991.46
2019-03-05T01:48:35.845Z,991.48
2019-03-05T01:49:16.413Z,991.43
2019-03-05T01:49:56.973Z,991.41
2019-03-05T01:50:37.525Z,991.52
2019-03-05T01:51:18.073Z,991.46
2019-03-05T01:51:58.643Z,991.45
2019-03-05T01:52:39.208Z,991.45
2019-03-05T01:53:19.818Z,991.53
2019-03-05T01:54:00.336Z,991.5
2019-03-05T01:54:40.922Z,991.47
2019-03-05T01:55:21.480Z,991.43
2019-03-05T01:56:02.067Z,991.51
2019-03-05T01:56:42.646Z,991.52
2019-03-05T01:57:23.205Z,991.57
2019-03-05T01:58:03.782Z,991.53
2019-03-05T01:58:44.367Z,991.56
2019-03-05T01:59:24.980Z,991.53
2019-03-05T02:00:05.549Z,991.57
2019-03-05T02:00:46.099Z,991.55
2019-03-05T02:01:26.678Z,991.59
2019-03-05T02:02:07.255Z,991.55
2019-03-05T02:02:47.820Z,991.61
2019-03-05T02:03:28.385Z,991.55
2019-03-05T02:04:08.992Z,991.62
2019-03-05T02:04:49.972Z,991.65
2019-03-05T02:05:30.534Z,991.61
2019-03-05T02:06:11.107Z,991.68
2019-03-05T02:06:51.665Z,991.57
2019-03-05T02:07:32.269Z,991.66
2019-03-05T02:08:12.826Z,991.61
2019-03-05T02:08:53.405Z,991.7
2019-03-05T02:09:33.961Z,991.55
2019-03-05T02:10:14.550Z,991.63
2019-03-05T02:10:55.122Z,991.65
2019-03-05T02:11:35.680Z,991.62
2019-03-05T02:12:16.241Z,991.61
2019-03-05T02:12:56.816Z,991.67
2019-03-05T02:13:37.397Z,991.65
2019-03-05T02:14:17.959Z,991.67
2019-03-05T02:14:58.531Z,991.69
2019-03-05T02:15:39.079Z,991.63
2019-03-05T02:16:19.643Z,991.62
2019-03-05T02:17:00.199Z,991.68
2019-03-05T02:17:40.753Z,991.67
2019-03-05T02:18:21.307Z,991.72
2019-03-05T02:19:01.876Z,991.72
2019-03-05T02:19:42.451Z,991.68
2019-03-05T02:20:23.026Z,991.65
2019-03-05T02:21:03.604Z,991.62
2019-03-05T02:21:44.175Z,991.65
2019-03-05T02:22:24.767Z,991.68
2019-03-05T02:23:05.336Z,991.64
2019-03-05T02:23:45.898Z,991.68
2019-03-05T02:24:26.467Z,991.66
2019-03-05T02:25:07.037Z,991.67
2019-03-05T02:25:47.613Z,991.77
2019-03-05T02:26:28.218Z,991.69
2019-03-05T02:27:08.814Z,991.72
2019-03-05T02:27:49.379Z,991.79
2019-03-05T02:28:29.938Z,991.81
2019-03-05T02:29:10.509Z,991.78
2019-03-05T02:29:51.085Z,991.81
2019-03-05T02:30:31.654Z,991.8
2019-03-05T02:31:12.222Z,991.78
2019-03-05T02:31:52.788Z,991.75
2019-03-05T02:32:33.359Z,991.74
2019-03-05T02:33:13.910Z,991.82
2019-03-05T02:33:54.501Z,991.79
2019-03-05T02:34:35.070Z,991.81
2019-03-05T02:35:15.635Z,991.77
2019-03-05T02:35:56.184Z,991.76
2019-03-05T02:36:36.771Z,991.86
2019-03-05T02:37:17.322Z,991.82
2019-03-05T02:37:57.904Z,991.74
2019-03-05T02:38:38.462Z,991.72
2019-03-05T02:39:19.041Z,991.75
2019-03-05T02:39:59.618Z,991.81
2019-03-05T02:40:40.175Z,991.73
2019-03-05T02:41:20.733Z,991.7
2019-03-05T02:42:01.304Z,991.66
2019-03-05T02:42:41.891Z,991.75
2019-03-05T02:43:22.455Z,991.73
2019-03-05T02:44:03.008Z,991.73
2019-03-05T02:44:43.617Z,991.73
2019-03-05T02:45:24.181Z,991.74
2019-03-05T02:46:04.758Z,991.69
2019-03-05T02:46:45.297Z,991.71
2019-03-05T02:47:25.864Z,991.74
2019-03-05T02:48:06.454Z,991.7
2019-03-05T02:48:47.061Z,991.74
2019-03-05T02:49:27.641Z,991.75
2019-03-05T02:50:08.229Z,991.7
2019-03-05T02:50:48.809Z,991.78
2019-03-05T02:51:29.460Z,991.71
2019-03-05T02:52:10.023Z,991.72
2019-03-05T02:52:50.604Z,991.76
2019-03-05T02:53:31.192Z,991.76
2019-03-05T02:54:11.766Z,991.78
2019-03-05T02:54:52.332Z,991.74
2019-03-05T02:55:32.934Z,991.77
2019-03-05T02:56:13.540Z,991.78
2019-03-05T02:56:54.104Z,991.81
2019-03-05T02:57:34.677Z,991.82
2019-03-05T02:58:15.308Z,991.81
2019-03-05T02:58:55.839Z,991.8
2019-03-05T02:59:36.400Z,991.79
2019-03-05T03:00:17.004Z,991.72
2019-03-05T03:00:57.554Z,991.76
2019-03-05T03:01:38.140Z,991.81
2019-03-05T03:02:18.710Z,991.73
2019-03-05T03:02:59.281Z,991.76
2019-03-05T03:03:39.843Z,991.79
2019-03-05T03:04:20.398Z,991.75
2019-03-05T03:05:01.082Z,991.73
2019-03-05T03:05:41.656Z,991.72
2019-03-05T03:06:22.226Z,991.74
2019-03-05T03:07:02.777Z,991.73
2019-03-05T03:07:43.331Z,991.74
2019-03-05T03:08:23.896Z,991.78
2019-03-05T03:09:04.443Z,991.75
2019-03-05T03:09:45.040Z,991.75
2019-03-05T03:10:25.623Z,991.81
2019-03-05T03:11:06.210Z,991.75
2019-03-05T03:11:46.764Z,991.79
2019-03-05T03:12:27.310Z,991.8
2019-03-05T03:13:07.876Z,991.76
2019-03-05T03:13:48.482Z,991.8
2019-03-05T03:14:29.083Z,991.81
2019-03-05T03:15:09.652Z,991.76
2019-03-05T03:15:50.232Z,991.78
2019-03-05T03:16:30.807Z,991.78
2019-03-05T03:17:11.403Z,991.84
2019-03-05T03:17:52.015Z,991.77
2019-03-05T03:18:32.575Z,991.8
2019-03-05T03:19:13.182Z,991.76
2019-03-05T03:19:53.789Z,991.75
2019-03-05T03:20:34.330Z,991.75
2019-03-05T03:21:14.916Z,991.82
2019-03-05T03:21:55.471Z,991.83
2019-03-05T03:22:36.087Z,991.86
2019-03-05T03:23:16.652Z,991.79
2019-03-05T03:23:57.251Z,991.79
2019-03-05T03:24:37.902Z,991.81
2019-03-05T03:25:18.395Z,991.78
2019-03-05T03:25:58.950Z,991.74
2019-03-05T03:26:39.502Z,991.77
2019-03-05T03:27:20.086Z,991.78
2019-03-05T03:28:00.657Z,991.73
2019-03-05T03:28:41.248Z,991.78
2019-03-05T03:29:21.791Z,991.77
2019-03-05T03:30:02.361Z,991.79
2019-03-05T03:30:42.910Z,991.76
2019-03-05T03:31:23.482Z,991.79
2019-03-05T03:32:04.063Z,991.81
2019-03-05T03:32:44.637Z,991.78
2019-03-05T03:33:25.211Z,991.76
2019-03-05T03:34:05.761Z,991.84
2019-03-05T03:34:46.321Z,991.8
2019-03-05T03:35:26.888Z,991.86
2019-03-05T03:36:07.442Z,991.84
2019-03-05T03:36:48.008Z,991.87
2019-03-05T03:37:28.578Z,991.81
2019-03-05T03:38:09.195Z,991.81
2019-03-05T03:38:49.747Z,991.89
2019-03-05T03:39:30.310Z,991.85
2019-03-05T03:40:10.887Z,991.82
2019-03-05T03:40:51.468Z,991.89
2019-03-05T03:41:32.036Z,991.9
2019-03-05T03:42:12.611Z,991.89
2019-03-05T03:42:53.189Z,991.93
2019-03-05T03:43:33.754Z,991.95
2019-03-05T03:44:14.314Z,991.81
2019-03-05T03:44:54.871Z,991.91
2019-03-05T03:45:35.461Z,991.85
2019-03-05T03:46:16.050Z,991.91
2019-03-05T03:46:56.644Z,991.85
2019-03-05T03:47:37.209Z,991.88
2019-03-05T03:48:17.767Z,991.89
2019-03-05T03:48:58.370Z,991.94
2019-03-05T03:49:38.933Z,991.95
2019-03-05T03:50:19.491Z,991.81
2019-03-05T03:51:00.105Z,991.93
2019-03-05T03:51:40.692Z,991.96
2019-03-05T03:52:21.274Z,991.94
2019-03-05T03:53:01.864Z,991.93
2019-03-05T03:53:42.484Z,991.88
2019-03-05T03:54:23.084Z,991.95
2019-03-05T03:55:03.671Z,991.9
2019-03-05T03:55:44.232Z,991.94
2019-03-05T03:56:24.803Z,992.01
2019-03-05T03:57:05.384Z,992.02
2019-03-05T03:57:45.940Z,992.02
2019-03-05T03:58:26.500Z,991.95
2019-03-05T03:59:07.062Z,992.01
2019-03-05T03:59:47.632Z,992.01
2019-03-05T04:00:28.197Z,992.02
2019-03-05T04:01:08.809Z,992
2019-03-05T04:01:49.360Z,991.98
2019-03-05T04:02:29.915Z,992.02
2019-03-05T04:03:10.470Z,992.1
2019-03-05T04:03:51.045Z,992.03
2019-03-05T04:04:31.596Z,992.09
2019-03-05T04:05:12.148Z,992.19
2019-03-05T04:05:52.701Z,992.08
2019-03-05T04:06:33.257Z,992.13
2019-03-05T04:07:13.832Z,992.18
2019-03-05T04:07:54.433Z,992.19
2019-03-05T04:08:34.994Z,992.15
2019-03-05T04:09:15.556Z,992.25
2019-03-05T04:09:56.109Z,992.12
2019-03-05T04:10:36.680Z,992.22
2019-03-05T04:11:17.232Z,992.2
2019-03-05T04:11:57.818Z,992.15
2019-03-05T04:12:38.431Z,992.24
2019-03-05T04:13:18.993Z,992.24
2019-03-05T04:13:59.906Z,992.21
2019-03-05T04:14:40.131Z,992.24
2019-03-05T04:15:20.718Z,992.23
2019-03-05T04:16:01.272Z,992.19
2019-03-05T04:16:41.846Z,992.18
2019-03-05T04:17:22.408Z,992.26
2019-03-05T04:18:02.996Z,992.2
2019-03-05T04:18:43.559Z,992.2
2019-03-05T04:19:24.118Z,992.2
2019-03-05T04:20:04.701Z,992.24
2019-03-05T04:20:45.283Z,992.18
2019-03-05T04:21:25.824Z,992.25
2019-03-05T04:22:06.394Z,992.2
2019-03-05T04:22:46.939Z,992.19
2019-03-05T04:23:27.493Z,992.21
2019-03-05T04:24:08.095Z,992.22
2019-03-05T04:24:48.666Z,992.24
2019-03-05T04:25:29.235Z,992.2
2019-03-05T04:26:09.828Z,992.14
2019-03-05T04:26:50.377Z,992.16
2019-03-05T04:27:30.977Z,992.26
2019-03-05T04:28:11.536Z,992.18
2019-03-05T04:28:52.131Z,992.26
2019-03-05T04:29:32.707Z,992.27
2019-03-05T04:30:13.282Z,992.18
2019-03-05T04:30:53.831Z,992.24
2019-03-05T04:31:34.397Z,992.29
2019-03-05T04:32:14.960Z,992.25
2019-03-05T04:32:55.509Z,992.18
2019-03-05T04:33:36.108Z,992.3
2019-03-05T04:34:16.697Z,992.19
2019-03-05T04:34:57.258Z,992.29
2019-03-05T04:35:37.823Z,992.31
2019-03-05T04:36:18.500Z,992.27
2019-03-05T04:36:59.011Z,992.25
2019-03-05T04:37:39.565Z,992.29
2019-03-05T04:38:20.139Z,992.35
2019-03-05T04:39:00.700Z,992.37
2019-03-05T04:39:41.258Z,992.38
2019-03-05T04:40:21.823Z,992.44
2019-03-05T04:41:02.405Z,992.23
2019-03-05T04:41:42.968Z,992.34
2019-03-05T04:42:23.520Z,992.41
2019-03-05T04:43:04.099Z,992.31
2019-03-05T04:43:44.675Z,992.32
2019-03-05T04:44:25.257Z,992.31
2019-03-05T04:45:05.819Z,992.43
2019-03-05T04:45:46.378Z,992.4
2019-03-05T04:46:26.960Z,992.3
2019-03-05T04:47:07.535Z,992.43
2019-03-05T04:47:48.097Z,992.43
2019-03-05T04:48:28.640Z,992.43
2019-03-05T04:49:09.192Z,992.42
2019-03-05T04:49:49.782Z,992.4
2019-03-05T04:50:30.333Z,992.41
2019-03-05T04:51:10.902Z,992.45
2019-03-05T04:51:51.462Z,992.37
2019-03-05T04:52:32.027Z,992.42
2019-03-05T04:53:12.607Z,992.46
2019-03-05T04:53:53.165Z,992.45
2019-03-05T04:54:33.730Z,992.42
2019-03-05T04:55:14.291Z,992.39
2019-03-05T04:55:54.908Z,992.38
2019-03-05T04:56:35.495Z,992.47
2019-03-05T04:57:16.044Z,992.46
2019-03-05T04:57:56.630Z,992.44
2019-03-05T04:58:37.196Z,992.42
2019-03-05T04:59:17.763Z,992.44
2019-03-05T04:59:58.355Z,992.45
2019-03-05T05:00:38.900Z,992.51
2019-03-05T05:01:19.454Z,992.4
2019-03-05T05:02:00.037Z,992.54
2019-03-05T05:02:40.589Z,992.4
2019-03-05T05:03:21.169Z,992.48
2019-03-05T05:04:01.736Z,992.44
2019-03-05T05:04:42.311Z,992.45
2019-03-05T05:05:22.891Z,992.51
2019-03-05T05:06:03.454Z,992.46
2019-03-05T05:06:44.117Z,992.31
2019-03-05T05:07:24.687Z,992.47
2019-03-05T05:08:05.233Z,992.48
2019-03-05T05:08:45.788Z,992.53
2019-03-05T05:09:26.411Z,992.49
2019-03-05T05:10:06.957Z,992.49
2019-03-05T05:10:47.549Z,992.48
2019-03-05T05:11:28.115Z,992.65
2019-03-05T05:12:08.707Z,992.37
2019-03-05T05:12:49.293Z,992.43
2019-03-05T05:13:29.857Z,992.47
2019-03-05T05:14:10.428Z,992.55
2019-03-05T05:14:51.013Z,992.58
2019-03-05T05:15:31.597Z,992.51
2019-03-05T05:16:12.177Z,992.51
2019-03-05T05:16:52.732Z,992.58
2019-03-05T05:17:33.312Z,992.65
2019-03-05T05:18:13.920Z,992.56
2019-03-05T05:18:54.470Z,992.62
2019-03-05T05:19:35.032Z,992.71
2019-03-05T05:20:15.579Z,992.63
2019-03-05T05:20:56.119Z,992.45
2019-03-05T05:21:36.726Z,992.65
2019-03-05T05:22:17.311Z,992.63
2019-03-05T05:22:57.874Z,992.61
2019-03-05T05:23:38.422Z,992.6
2019-03-05T05:24:18.982Z,992.72
2019-03-05T05:24:59.536Z,992.74
2019-03-05T05:25:40.161Z,992.63
2019-03-05T05:26:20.706Z,992.63
2019-03-05T05:27:01.260Z,992.82
2019-03-05T05:27:41.863Z,992.78
2019-03-05T05:28:22.401Z,992.7
2019-03-05T05:29:02.996Z,992.64
2019-03-05T05:29:43.563Z,992.76
2019-03-05T05:30:24.136Z,992.76
2019-03-05T05:31:04.702Z,992.76
2019-03-05T05:31:45.262Z,992.81
2019-03-05T05:32:25.825Z,992.81
2019-03-05T05:33:06.378Z,992.79
2019-03-05T05:33:46.946Z,992.77
2019-03-05T05:34:27.500Z,992.71
2019-03-05T05:35:08.065Z,992.79
2019-03-05T05:35:48.650Z,992.73
2019-03-05T05:36:29.243Z,992.93
2019-03-05T05:37:09.851Z,992.77
2019-03-05T05:37:50.465Z,992.82
2019-03-05T05:38:31.058Z,992.83
2019-03-05T05:39:11.621Z,992.71
2019-03-05T05:39:52.179Z,992.81
2019-03-05T05:40:32.755Z,992.85
2019-03-05T05:41:13.313Z,992.78
2019-03-05T05:41:53.869Z,992.74
2019-03-05T05:42:34.455Z,992.83
2019-03-05T05:43:15.020Z,992.9
2019-03-05T05:43:56.435Z,992.63
2019-03-05T05:44:37.039Z,992.81
2019-03-05T05:45:19.282Z,992.92
2019-03-05T05:45:58.141Z,992.86
2019-03-05T05:46:39.141Z,992.84
2019-03-05T05:47:20.380Z,992.89
2019-03-05T05:48:01.544Z,992.85
2019-03-05T05:48:42.737Z,992.84
2019-03-05T05:49:23.595Z,992.89
2019-03-05T05:50:04.700Z,992.79
2019-03-05T05:50:45.381Z,992.93
2019-03-05T05:51:26.000Z,992.92
2019-03-05T05:52:06.697Z,992.87
2019-03-05T05:52:47.603Z,992.87
2019-03-05T05:53:28.239Z,992.95
2019-03-05T05:54:08.806Z,992.99
2019-03-05T05:54:49.602Z,992.94
2019-03-05T05:55:30.547Z,992.96
2019-03-05T05:56:11.203Z,992.89
2019-03-05T05:56:51.930Z,992.91
2019-03-05T05:57:32.488Z,993.04
2019-03-05T05:58:13.071Z,992.94
2019-03-05T05:58:54.136Z,993.04
2019-03-05T05:59:35.140Z,993.03
2019-03-05T06:00:15.856Z,993.1
2019-03-05T06:00:56.513Z,993.05
2019-03-05T06:01:37.082Z,992.96
2019-03-05T06:02:17.692Z,993.02
2019-03-05T06:02:58.261Z,993.16
2019-03-05T06:03:38.873Z,993.02
2019-03-05T06:04:19.428Z,993.08
2019-03-05T06:05:00.221Z,993.07
2019-03-05T06:05:40.659Z,993.11
2019-03-05T06:06:21.232Z,993.09
2019-03-05T06:07:01.932Z,993.07
2019-03-05T06:07:42.679Z,993.11
2019-03-05T06:08:23.289Z,993.12
2019-03-05T06:09:03.939Z,993.13
2019-03-05T06:09:44.554Z,993.07
2019-03-05T06:10:25.130Z,993.13
2019-03-05T06:11:05.667Z,993.16
2019-03-05T06:11:46.246Z,993.14
2019-03-05T06:12:26.830Z,993.07
2019-03-05T06:13:07.376Z,993.07
2019-03-05T06:13:47.988Z,993.12
2019-03-05T06:14:28.545Z,993.15
2019-03-05T06:15:09.159Z,993.15
2019-03-05T06:15:49.737Z,993.23
2019-03-05T06:16:30.347Z,993.19
2019-03-05T06:17:10.918Z,993.16
2019-03-05T06:17:51.478Z,993.17
2019-03-05T06:18:32.043Z,993.21
2019-03-05T06:19:12.639Z,993.21
2019-03-05T06:19:53.261Z,993.25
2019-03-05T06:20:33.750Z,993.25
2019-03-05T06:21:14.366Z,993.29
2019-03-05T06:21:54.950Z,993.35
2019-03-05T06:22:35.544Z,993.35
2019-03-05T06:23:16.119Z,993.23
2019-03-05T06:23:56.803Z,993.31
2019-03-05T06:24:37.372Z,993.33
2019-03-05T06:25:18.044Z,993.32
2019-03-05T06:25:58.664Z,993.4
2019-03-05T06:26:39.234Z,993.38
2019-03-05T06:27:19.896Z,993.33
2019-03-05T06:28:00.480Z,993.4
2019-03-05T06:28:41.033Z,993.38
2019-03-05T06:29:21.661Z,993.28
2019-03-05T06:30:02.248Z,993.51
2019-03-05T06:30:42.826Z,993.39
2019-03-05T06:31:23.403Z,993.42
2019-03-05T06:32:03.980Z,993.34
2019-03-05T06:32:44.545Z,993.5
2019-03-05T06:33:25.148Z,993.47
2019-03-05T06:34:05.709Z,993.44
2019-03-05T06:34:46.281Z,993.44
2019-03-05T06:35:26.843Z,993.53
2019-03-05T06:36:07.420Z,993.54
2019-03-05T06:36:48.012Z,993.54
2019-03-05T06:37:28.612Z,993.5
2019-03-05T06:38:09.207Z,993.52
2019-03-05T06:38:49.804Z,993.57
2019-03-05T06:39:30.391Z,993.48
2019-03-05T06:40:10.974Z,993.54
2019-03-05T06:40:51.590Z,993.58
2019-03-05T06:41:32.131Z,993.64
2019-03-05T06:42:12.726Z,993.61
2019-03-05T06:42:53.343Z,993.62
2019-03-05T06:43:33.928Z,993.64
2019-03-05T06:44:14.547Z,993.65
2019-03-05T06:44:55.108Z,993.67
2019-03-05T06:45:35.667Z,993.63
2019-03-05T06:46:16.288Z,993.74
2019-03-05T06:46:56.857Z,993.55
2019-03-05T06:47:37.463Z,993.73
2019-03-05T06:48:17.987Z,993.68
2019-03-05T06:48:58.587Z,993.62
2019-03-05T06:49:39.133Z,993.83
2019-03-05T06:50:19.724Z,993.77
2019-03-05T06:51:00.295Z,993.72
2019-03-05T06:51:40.862Z,993.76
2019-03-05T06:52:21.462Z,993.8
2019-03-05T06:53:02.076Z,993.8
2019-03-05T06:53:42.670Z,993.83
2019-03-05T06:54:23.260Z,993.8
2019-03-05T06:55:03.821Z,993.81
2019-03-05T06:55:44.391Z,993.84
2019-03-05T06:56:25.081Z,993.84
2019-03-05T06:57:05.659Z,993.82
2019-03-05T06:57:46.213Z,993.82
2019-03-05T06:58:26.836Z,993.86
2019-03-05T06:59:07.449Z,993.89
2019-03-05T06:59:48.028Z,993.88
2019-03-05T07:00:28.586Z,993.85
2019-03-05T07:01:09.162Z,993.92
2019-03-05T07:01:49.746Z,993.93
2019-03-05T07:02:30.350Z,993.93
2019-03-05T07:03:10.919Z,993.94
2019-03-05T07:03:51.492Z,993.96
2019-03-05T07:04:32.081Z,994
2019-03-05T07:05:13.114Z,993.96
2019-03-05T07:05:53.659Z,993.97
2019-03-05T07:06:34.286Z,994.04
2019-03-05T07:07:14.870Z,994.01
2019-03-05T07:07:55.408Z,994.03
2019-03-05T07:08:35.962Z,993.99
2019-03-05T07:09:16.566Z,994.02
2019-03-05T07:09:57.172Z,994.04
2019-03-05T07:10:37.734Z,994.05
2019-03-05T07:11:18.348Z,994.03
2019-03-05T07:11:58.897Z,994.13
2019-03-05T07:12:39.477Z,994.04
2019-03-05T07:13:20.080Z,994.08
2019-03-05T07:14:00.680Z,993.99
2019-03-05T07:14:41.247Z,994.1
2019-03-05T07:15:21.833Z,994.04
2019-03-05T07:16:02.395Z,994.1
2019-03-05T07:16:43.051Z,994.13
2019-03-05T07:17:23.607Z,994.05
2019-03-05T07:18:04.191Z,994.17
2019-03-05T07:18:44.742Z,994.13
2019-03-05T07:19:25.326Z,994.14
2019-03-05T07:20:05.873Z,994.07
2019-03-05T07:20:46.460Z,994.19
2019-03-05T07:21:27.077Z,994.14
2019-03-05T07:22:07.637Z,994.11
2019-03-05T07:22:48.252Z,994.22
2019-03-05T07:23:28.802Z,994.25
2019-03-05T07:24:09.414Z,994.24
2019-03-05T07:24:49.977Z,994.24
2019-03-05T07:25:30.556Z,994.26
2019-03-05T07:26:11.582Z,994.25
2019-03-05T07:26:52.162Z,994.29
2019-03-05T07:27:32.717Z,994.29
2019-03-05T07:28:13.308Z,994.33
2019-03-05T07:28:53.872Z,994.28
2019-03-05T07:29:34.461Z,994.31
2019-03-05T07:30:14.999Z,994.33
2019-03-05T07:30:55.575Z,994.33
2019-03-05T07:31:36.124Z,994.31
2019-03-05T07:32:16.697Z,994.29
2019-03-05T07:32:57.294Z,994.4
2019-03-05T07:33:37.897Z,994.34
2019-03-05T07:34:18.477Z,994.35
2019-03-05T07:34:59.041Z,994.38
2019-03-05T07:35:39.602Z,994.42
2019-03-05T07:36:20.184Z,994.4
2019-03-05T07:37:00.777Z,994.41
2019-03-05T07:37:41.341Z,994.53
2019-03-05T07:38:21.934Z,994.55
2019-03-05T07:39:02.479Z,994.54
2019-03-05T07:39:43.193Z,994.48
2019-03-05T07:40:23.912Z,994.49
2019-03-05T07:41:04.455Z,994.5
2019-03-05T07:41:45.315Z,994.43
2019-03-05T07:42:26.007Z,994.52
2019-03-05T07:43:06.579Z,994.54
2019-03-05T07:43:47.129Z,994.45
2019-03-05T07:44:27.726Z,994.39
2019-03-05T07:45:08.298Z,994.56
2019-03-05T07:45:48.858Z,994.53
2019-03-05T07:46:29.443Z,994.49
2019-03-05T07:47:10.106Z,994.57
2019-03-05T07:47:50.675Z,994.87
2019-03-05T07:48:31.261Z,994.77
2019-03-05T07:49:11.823Z,994.47
2019-03-05T07:49:52.414Z,994.66
2019-03-05T07:50:33.143Z,994.67
2019-03-05T07:51:13.748Z,994.62
2019-03-05T07:51:54.318Z,994.6
2019-03-05T07:52:34.904Z,994.53
2019-03-05T07:53:15.475Z,994.6
2019-03-05T07:53:56.020Z,994.57
2019-03-05T07:54:36.635Z,994.62
2019-03-05T07:55:17.205Z,994.64
2019-03-05T07:55:57.782Z,994.55
2019-03-05T07:56:38.348Z,994.54
2019-03-05T07:57:18.901Z,994.58
2019-03-05T07:57:59.490Z,994.48
2019-03-05T07:58:40.061Z,994.65
2019-03-05T07:59:20.634Z,994.54
2019-03-05T08:00:01.210Z,994.56
2019-03-05T08:00:41.783Z,994.56
2019-03-05T08:01:25.397Z,994.58
2019-03-05T08:02:06.692Z,994.53
2019-03-05T08:02:47.268Z,994.71
2019-03-05T08:03:27.906Z,994.57
2019-03-05T08:04:08.457Z,994.62
2019-03-05T08:04:49.023Z,994.59
2019-03-05T08:05:29.656Z,994.64
2019-03-05T08:06:10.229Z,994.51
2019-03-05T08:06:50.802Z,994.53
2019-03-05T08:07:31.408Z,994.66
2019-03-05T08:08:11.969Z,994.68
2019-03-05T08:08:52.542Z,994.68
2019-03-05T08:09:33.148Z,994.65
2019-03-05T08:10:13.712Z,994.65
2019-03-05T08:10:54.367Z,994.7
2019-03-05T08:11:35.003Z,994.69
2019-03-05T08:12:15.614Z,994.7
2019-03-05T08:12:56.263Z,994.72
2019-03-05T08:13:36.823Z,994.67
2019-03-05T08:14:17.593Z,994.81
2019-03-05T08:14:58.188Z,994.8
2019-03-05T08:15:38.762Z,994.74
2019-03-05T08:16:19.320Z,994.78
2019-03-05T08:16:59.878Z,994.73
2019-03-05T08:17:40.434Z,994.83
2019-03-05T08:18:20.993Z,994.78
2019-03-05T08:19:01.626Z,994.77
2019-03-05T08:19:42.189Z,994.83
2019-03-05T08:20:22.845Z,994.8
2019-03-05T08:21:03.402Z,994.88
2019-03-05T08:21:43.993Z,994.82
2019-03-05T08:22:24.617Z,994.88
2019-03-05T08:23:05.210Z,994.79
2019-03-05T08:23:48.312Z,994.83
2019-03-05T08:24:26.756Z,994.78
2019-03-05T08:25:07.371Z,994.89
2019-03-05T08:25:47.939Z,994.86
2019-03-05T08:26:28.563Z,994.79
2019-03-05T08:27:09.152Z,994.91
2019-03-05T08:27:50.663Z,994.94